sensor_id;sensor_type;location;lat;lon;timestamp;temperature;humidity
78898;DHT22;70344;44.736;37.800;2023-07-13T00:00:04;24.56;75.72
78898;DHT22;70344;44.736;37.800;2023-07-13T00:01:17;24.53;75.37
78898;DHT22;70344;44.736;37.800;2023-07-13T00:02:19;24.52;74.84
78898;DHT22;70344;44.736;37.800;2023-07-13T00:03:21;24.52;74.96
78898;DHT22;70344;44.736;37.800;2023-07-13T00:04:24;24.48;75.40
78898;DHT22;70344;44.736;37.800;2023-07-13T00:05:32;24.52;75.46
78898;DHT22;70344;44.736;37.800;2023-07-13T00:06:37;24.52;75.75
78898;DHT22;70344;44.736;37.800;2023-07-13T00:07:39;24.53;75.65
78898;DHT22;70344;44.736;37.800;2023-07-13T00:08:43;24.53;75.66
78898;DHT22;70344;44.736;37.800;2023-07-13T00:09:46;24.53;75.41
78898;DHT22;70344;44.736;37.800;2023-07-13T00:10:55;24.53;75.21
78898;DHT22;70344;44.736;37.800;2023-07-13T00:12:01;24.52;75.43
78898;DHT22;70344;44.736;37.800;2023-07-13T00:13:10;24.51;75.25
78898;DHT22;70344;44.736;37.800;2023-07-13T00:14:15;24.52;75.02
78898;DHT22;70344;44.736;37.800;2023-07-13T00:15:21;24.51;75.10
78898;DHT22;70344;44.736;37.800;2023-07-13T00:16:24;24.55;74.72
78898;DHT22;70344;44.736;37.800;2023-07-13T00:17:33;24.53;74.89
78898;DHT22;70344;44.736;37.800;2023-07-13T00:18:40;24.51;75.08
78898;DHT22;70344;44.736;37.800;2023-07-13T00:19:42;24.51;74.76
78898;DHT22;70344;44.736;37.800;2023-07-13T00:20:46;24.55;74.63
78898;DHT22;70344;44.736;37.800;2023-07-13T00:21:53;24.52;74.56
78898;DHT22;70344;44.736;37.800;2023-07-13T00:22:57;24.52;74.15
78898;DHT22;70344;44.736;37.800;2023-07-13T00:23:59;24.55;74.42
78898;DHT22;70344;44.736;37.800;2023-07-13T00:25:02;24.57;74.29
78898;DHT22;70344;44.736;37.800;2023-07-13T00:26:11;24.57;74.31
78898;DHT22;70344;44.736;37.800;2023-07-13T00:27:15;24.59;74.65
78898;DHT22;70344;44.736;37.800;2023-07-13T00:28:19;24.57;75.38
78898;DHT22;70344;44.736;37.800;2023-07-13T00:29:21;24.56;75.87
78898;DHT22;70344;44.736;37.800;2023-07-13T00:30:26;24.59;76.20
78898;DHT22;70344;44.736;37.800;2023-07-13T00:31:28;24.57;75.09
78898;DHT22;70344;44.736;37.800;2023-07-13T00:32:30;24.57;75.02
78898;DHT22;70344;44.736;37.800;2023-07-13T00:33:34;24.59;75.13
78898;DHT22;70344;44.736;37.800;2023-07-13T00:34:38;24.62;75.40
78898;DHT22;70344;44.736;37.800;2023-07-13T00:35:39;24.60;75.69
78898;DHT22;70344;44.736;37.800;2023-07-13T00:36:49;24.60;75.61
78898;DHT22;70344;44.736;37.800;2023-07-13T00:37:51;24.60;75.01
78898;DHT22;70344;44.736;37.800;2023-07-13T00:38:56;24.59;74.97
78898;DHT22;70344;44.736;37.800;2023-07-13T00:39:59;24.63;75.09
78898;DHT22;70344;44.736;37.800;2023-07-13T00:41:05;24.64;75.32
78898;DHT22;70344;44.736;37.800;2023-07-13T00:42:09;24.66;75.34
78898;DHT22;70344;44.736;37.800;2023-07-13T00:43:21;24.63;74.33
78898;DHT22;70344;44.736;37.800;2023-07-13T00:44:23;24.62;74.45
78898;DHT22;70344;44.736;37.800;2023-07-13T00:46:29;24.62;75.39
78898;DHT22;70344;44.736;37.800;2023-07-13T00:47:32;24.60;75.51
78898;DHT22;70344;44.736;37.800;2023-07-13T00:48:36;24.62;75.09
78898;DHT22;70344;44.736;37.800;2023-07-13T00:49:39;24.59;75.16
78898;DHT22;70344;44.736;37.800;2023-07-13T00:50:44;24.60;75.02
78898;DHT22;70344;44.736;37.800;2023-07-13T00:51:55;24.60;75.21
78898;DHT22;70344;44.736;37.800;2023-07-13T00:52:57;24.59;75.21
78898;DHT22;70344;44.736;37.800;2023-07-13T00:54:04;24.59;75.47
78898;DHT22;70344;44.736;37.800;2023-07-13T00:55:11;24.59;75.70
78898;DHT22;70344;44.736;37.800;2023-07-13T00:56:17;24.59;75.53
78898;DHT22;70344;44.736;37.800;2023-07-13T00:57:22;24.57;75.60
78898;DHT22;70344;44.736;37.800;2023-07-13T00:58:28;24.57;75.82
78898;DHT22;70344;44.736;37.800;2023-07-13T00:59:37;24.56;75.81
78898;DHT22;70344;44.736;37.800;2023-07-13T01:00:46;24.59;75.75
78898;DHT22;70344;44.736;37.800;2023-07-13T01:01:50;24.60;75.69
78898;DHT22;70344;44.736;37.800;2023-07-13T01:02:52;24.55;76.02
78898;DHT22;70344;44.736;37.800;2023-07-13T01:03:54;24.55;75.95
78898;DHT22;70344;44.736;37.800;2023-07-13T01:04:59;24.53;76.22
78898;DHT22;70344;44.736;37.800;2023-07-13T01:06:05;24.56;76.25
78898;DHT22;70344;44.736;37.800;2023-07-13T01:07:08;24.57;75.78
78898;DHT22;70344;44.736;37.800;2023-07-13T01:08:12;24.56;75.55
78898;DHT22;70344;44.736;37.800;2023-07-13T01:09:15;24.56;75.56
78898;DHT22;70344;44.736;37.800;2023-07-13T01:10:27;24.55;75.14
78898;DHT22;70344;44.736;37.800;2023-07-13T01:11:29;24.52;74.62
78898;DHT22;70344;44.736;37.800;2023-07-13T01:12:31;24.51;74.75
78898;DHT22;70344;44.736;37.800;2023-07-13T01:13:38;24.52;74.58
78898;DHT22;70344;44.736;37.800;2023-07-13T01:14:40;24.52;74.68
78898;DHT22;70344;44.736;37.800;2023-07-13T01:15:44;24.53;75.28
78898;DHT22;70344;44.736;37.800;2023-07-13T01:16:48;24.52;75.27
78898;DHT22;70344;44.736;37.800;2023-07-13T01:17:53;24.55;75.25
78898;DHT22;70344;44.736;37.800;2023-07-13T01:18:56;24.55;74.92
78898;DHT22;70344;44.736;37.800;2023-07-13T01:20:02;24.55;74.68
78898;DHT22;70344;44.736;37.800;2023-07-13T01:21:06;24.55;74.62
78898;DHT22;70344;44.736;37.800;2023-07-13T01:22:12;24.57;74.74
78898;DHT22;70344;44.736;37.800;2023-07-13T01:23:17;24.57;74.61
78898;DHT22;70344;44.736;37.800;2023-07-13T01:24:26;24.57;74.84
78898;DHT22;70344;44.736;37.800;2023-07-13T01:25:30;24.59;74.85
78898;DHT22;70344;44.736;37.800;2023-07-13T01:26:35;24.59;75.05
78898;DHT22;70344;44.736;37.800;2023-07-13T01:27:36;24.57;75.30
78898;DHT22;70344;44.736;37.800;2023-07-13T01:28:41;24.56;75.56
78898;DHT22;70344;44.736;37.800;2023-07-13T01:29:44;24.56;75.41
78898;DHT22;70344;44.736;37.800;2023-07-13T01:30:54;24.55;75.31
78898;DHT22;70344;44.736;37.800;2023-07-13T01:31:56;24.59;75.74
78898;DHT22;70344;44.736;37.800;2023-07-13T01:33:03;24.55;75.55
78898;DHT22;70344;44.736;37.800;2023-07-13T01:34:10;24.57;75.72
78898;DHT22;70344;44.736;37.800;2023-07-13T01:35:12;24.55;75.33
78898;DHT22;70344;44.736;37.800;2023-07-13T01:36:14;24.56;75.21
78898;DHT22;70344;44.736;37.800;2023-07-13T01:37:18;24.59;75.26
78898;DHT22;70344;44.736;37.800;2023-07-13T01:38:26;24.60;75.37
78898;DHT22;70344;44.736;37.800;2023-07-13T01:39:29;24.59;74.94
78898;DHT22;70344;44.736;37.800;2023-07-13T01:40:36;24.60;75.14
78898;DHT22;70344;44.736;37.800;2023-07-13T01:41:38;24.60;74.92
78898;DHT22;70344;44.736;37.800;2023-07-13T01:42:41;24.57;74.82
78898;DHT22;70344;44.736;37.800;2023-07-13T01:43:45;24.60;74.82
78898;DHT22;70344;44.736;37.800;2023-07-13T01:44:47;24.60;74.68
78898;DHT22;70344;44.736;37.800;2023-07-13T01:45:49;24.60;74.65
78898;DHT22;70344;44.736;37.800;2023-07-13T01:46:53;24.60;74.67
78898;DHT22;70344;44.736;37.800;2023-07-13T01:47:55;24.59;74.35
78898;DHT22;70344;44.736;37.800;2023-07-13T01:48:57;24.62;74.48
78898;DHT22;70344;44.736;37.800;2023-07-13T01:50:03;24.59;74.42
78898;DHT22;70344;44.736;37.800;2023-07-13T01:51:05;24.62;74.86
78898;DHT22;70344;44.736;37.800;2023-07-13T01:52:09;24.63;74.60
78898;DHT22;70344;44.736;37.800;2023-07-13T01:53:13;24.62;74.76
78898;DHT22;70344;44.736;37.800;2023-07-13T01:54:15;24.62;74.66
78898;DHT22;70344;44.736;37.800;2023-07-13T01:55:22;24.62;74.37
78898;DHT22;70344;44.736;37.800;2023-07-13T01:56:26;24.59;74.19
78898;DHT22;70344;44.736;37.800;2023-07-13T01:57:33;24.60;74.26
78898;DHT22;70344;44.736;37.800;2023-07-13T01:58:35;24.64;74.64
78898;DHT22;70344;44.736;37.800;2023-07-13T01:59:39;24.63;74.77
78898;DHT22;70344;44.736;37.800;2023-07-13T02:00:42;24.60;74.88
78898;DHT22;70344;44.736;37.800;2023-07-13T02:01:43;24.60;74.74
78898;DHT22;70344;44.736;37.800;2023-07-13T02:02:45;24.62;74.70
78898;DHT22;70344;44.736;37.800;2023-07-13T02:03:47;24.60;74.71
78898;DHT22;70344;44.736;37.800;2023-07-13T02:04:51;24.60;74.71
78898;DHT22;70344;44.736;37.800;2023-07-13T02:05:56;24.60;74.70
78898;DHT22;70344;44.736;37.800;2023-07-13T02:07:00;24.60;74.54
78898;DHT22;70344;44.736;37.800;2023-07-13T02:08:02;24.60;74.45
78898;DHT22;70344;44.736;37.800;2023-07-13T02:09:07;24.60;74.25
78898;DHT22;70344;44.736;37.800;2023-07-13T02:10:10;24.59;74.33
78898;DHT22;70344;44.736;37.800;2023-07-13T02:11:12;24.57;74.75
78898;DHT22;70344;44.736;37.800;2023-07-13T02:12:17;24.59;74.92
78898;DHT22;70344;44.736;37.800;2023-07-13T02:13:21;24.62;75.21
78898;DHT22;70344;44.736;37.800;2023-07-13T02:14:23;24.56;75.57
78898;DHT22;70344;44.736;37.800;2023-07-13T02:15:27;24.59;75.63
78898;DHT22;70344;44.736;37.800;2023-07-13T02:16:32;24.56;75.82
78898;DHT22;70344;44.736;37.800;2023-07-13T02:17:37;24.56;76.08
78898;DHT22;70344;44.736;37.800;2023-07-13T02:18:44;24.56;76.07
78898;DHT22;70344;44.736;37.800;2023-07-13T02:19:48;24.55;75.82
78898;DHT22;70344;44.736;37.800;2023-07-13T02:20:50;24.52;75.96
78898;DHT22;70344;44.736;37.800;2023-07-13T02:21:52;24.51;75.90
78898;DHT22;70344;44.736;37.800;2023-07-13T02:22:58;24.52;75.75
78898;DHT22;70344;44.736;37.800;2023-07-13T02:24:02;24.49;75.95
78898;DHT22;70344;44.736;37.800;2023-07-13T02:25:05;24.49;75.88
78898;DHT22;70344;44.736;37.800;2023-07-13T02:26:12;24.49;75.97
78898;DHT22;70344;44.736;37.800;2023-07-13T02:27:17;24.49;75.89
78898;DHT22;70344;44.736;37.800;2023-07-13T02:28:22;24.49;76.00
78898;DHT22;70344;44.736;37.800;2023-07-13T02:29:27;24.49;75.68
78898;DHT22;70344;44.736;37.800;2023-07-13T02:30:29;24.52;75.25
78898;DHT22;70344;44.736;37.800;2023-07-13T02:31:31;24.51;75.03
78898;DHT22;70344;44.736;37.800;2023-07-13T02:32:33;24.52;75.04
78898;DHT22;70344;44.736;37.800;2023-07-13T02:33:35;24.51;74.98
78898;DHT22;70344;44.736;37.800;2023-07-13T02:34:41;24.52;74.67
78898;DHT22;70344;44.736;37.800;2023-07-13T02:35:43;24.53;74.80
78898;DHT22;70344;44.736;37.800;2023-07-13T02:36:45;24.51;74.64
78898;DHT22;70344;44.736;37.800;2023-07-13T02:37:51;24.51;74.88
78898;DHT22;70344;44.736;37.800;2023-07-13T02:38:53;24.51;74.93
78898;DHT22;70344;44.736;37.800;2023-07-13T02:39:58;24.51;74.80
78898;DHT22;70344;44.736;37.800;2023-07-13T02:41:00;24.51;74.49
78898;DHT22;70344;44.736;37.800;2023-07-13T02:42:07;24.48;74.96
78898;DHT22;70344;44.736;37.800;2023-07-13T02:43:09;24.49;74.66
78898;DHT22;70344;44.736;37.800;2023-07-13T02:44:13;24.45;74.81
78898;DHT22;70344;44.736;37.800;2023-07-13T02:45:15;24.46;74.69
78898;DHT22;70344;44.736;37.800;2023-07-13T02:46:17;24.46;74.93
78898;DHT22;70344;44.736;37.800;2023-07-13T02:47:24;24.45;74.68
78898;DHT22;70344;44.736;37.800;2023-07-13T02:48:28;24.42;74.88
78898;DHT22;70344;44.736;37.800;2023-07-13T02:49:30;24.42;75.02
78898;DHT22;70344;44.736;37.800;2023-07-13T02:50:31;24.42;75.57
78898;DHT22;70344;44.736;37.800;2023-07-13T02:51:33;24.40;75.79
78898;DHT22;70344;44.736;37.800;2023-07-13T02:52:36;24.36;75.48
78898;DHT22;70344;44.736;37.800;2023-07-13T02:53:38;24.32;75.55
78898;DHT22;70344;44.736;37.800;2023-07-13T02:54:40;24.29;75.45
78898;DHT22;70344;44.736;37.800;2023-07-13T02:55:42;24.29;75.74
78898;DHT22;70344;44.736;37.800;2023-07-13T02:56:49;24.26;75.42
78898;DHT22;70344;44.736;37.800;2023-07-13T02:57:53;24.29;75.38
78898;DHT22;70344;44.736;37.800;2023-07-13T02:58:58;24.28;75.42
78898;DHT22;70344;44.736;37.800;2023-07-13T03:00:03;24.31;75.47
78898;DHT22;70344;44.736;37.800;2023-07-13T03:01:10;24.31;75.55
78898;DHT22;70344;44.736;37.800;2023-07-13T03:02:12;24.31;75.24
78898;DHT22;70344;44.736;37.800;2023-07-13T03:03:14;24.32;75.62
78898;DHT22;70344;44.736;37.800;2023-07-13T03:04:17;24.29;75.72
78898;DHT22;70344;44.736;37.800;2023-07-13T03:05:21;24.32;75.49
78898;DHT22;70344;44.736;37.800;2023-07-13T03:06:23;24.31;75.74
78898;DHT22;70344;44.736;37.800;2023-07-13T03:07:30;24.29;76.16
78898;DHT22;70344;44.736;37.800;2023-07-13T03:08:40;24.28;75.94
78898;DHT22;70344;44.736;37.800;2023-07-13T03:09:42;24.28;75.47
78898;DHT22;70344;44.736;37.800;2023-07-13T03:10:45;24.29;75.37
78898;DHT22;70344;44.736;37.800;2023-07-13T03:11:55;24.31;75.70
78898;DHT22;70344;44.736;37.800;2023-07-13T03:13:03;24.26;75.40
78898;DHT22;70344;44.736;37.800;2023-07-13T03:14:07;24.24;75.44
78898;DHT22;70344;44.736;37.800;2023-07-13T03:15:11;24.24;75.44
78898;DHT22;70344;44.736;37.800;2023-07-13T03:16:18;24.25;75.75
78898;DHT22;70344;44.736;37.800;2023-07-13T03:17:24;24.25;75.75
78898;DHT22;70344;44.736;37.800;2023-07-13T03:18:27;24.22;75.85
78898;DHT22;70344;44.736;37.800;2023-07-13T03:19:29;24.20;75.41
78898;DHT22;70344;44.736;37.800;2023-07-13T03:20:33;24.21;75.74
78898;DHT22;70344;44.736;37.800;2023-07-13T03:21:39;24.20;76.06
78898;DHT22;70344;44.736;37.800;2023-07-13T03:22:45;24.18;75.85
78898;DHT22;70344;44.736;37.800;2023-07-13T03:23:50;24.20;76.04
78898;DHT22;70344;44.736;37.800;2023-07-13T03:24:52;24.17;76.00
78898;DHT22;70344;44.736;37.800;2023-07-13T03:26:12;24.20;76.04
78898;DHT22;70344;44.736;37.800;2023-07-13T03:27:17;24.21;75.81
78898;DHT22;70344;44.736;37.800;2023-07-13T03:28:20;24.17;75.80
78898;DHT22;70344;44.736;37.800;2023-07-13T03:29:25;24.17;76.21
78898;DHT22;70344;44.736;37.800;2023-07-13T03:30:31;24.12;75.87
78898;DHT22;70344;44.736;37.800;2023-07-13T03:31:36;24.14;75.62
78898;DHT22;70344;44.736;37.800;2023-07-13T03:32:38;24.14;76.03
78898;DHT22;70344;44.736;37.800;2023-07-13T03:33:40;24.15;76.20
78898;DHT22;70344;44.736;37.800;2023-07-13T03:34:45;24.14;76.24
78898;DHT22;70344;44.736;37.800;2023-07-13T03:35:48;24.12;76.31
78898;DHT22;70344;44.736;37.800;2023-07-13T03:36:50;24.11;76.73
78898;DHT22;70344;44.736;37.800;2023-07-13T03:37:54;24.08;76.40
78898;DHT22;70344;44.736;37.800;2023-07-13T03:39:03;24.08;76.54
78898;DHT22;70344;44.736;37.800;2023-07-13T03:40:23;24.07;76.41
78898;DHT22;70344;44.736;37.800;2023-07-13T03:41:25;24.05;76.36
78898;DHT22;70344;44.736;37.800;2023-07-13T03:42:28;24.07;76.25
78898;DHT22;70344;44.736;37.800;2023-07-13T03:43:30;24.07;76.26
78898;DHT22;70344;44.736;37.800;2023-07-13T03:44:39;24.08;76.52
78898;DHT22;70344;44.736;37.800;2023-07-13T03:45:41;24.07;76.30
78898;DHT22;70344;44.736;37.800;2023-07-13T03:46:44;24.05;76.58
78898;DHT22;70344;44.736;37.800;2023-07-13T03:47:46;24.05;76.74
78898;DHT22;70344;44.736;37.800;2023-07-13T03:48:53;24.03;76.76
78898;DHT22;70344;44.736;37.800;2023-07-13T03:49:59;24.04;76.84
78898;DHT22;70344;44.736;37.800;2023-07-13T03:51:02;24.04;76.84
78898;DHT22;70344;44.736;37.800;2023-07-13T03:52:05;24.04;76.90
78898;DHT22;70344;44.736;37.800;2023-07-13T03:53:10;24.03;76.67
78898;DHT22;70344;44.736;37.800;2023-07-13T03:54:12;24.01;77.20
78898;DHT22;70344;44.736;37.800;2023-07-13T03:55:17;24.01;76.62
78898;DHT22;70344;44.736;37.800;2023-07-13T03:56:20;24.04;76.76
78898;DHT22;70344;44.736;37.800;2023-07-13T03:57:23;24.03;77.04
78898;DHT22;70344;44.736;37.800;2023-07-13T03:58:34;24.03;76.89
78898;DHT22;70344;44.736;37.800;2023-07-13T03:59:44;24.03;77.46
78898;DHT22;70344;44.736;37.800;2023-07-13T04:00:49;24.01;76.97
78898;DHT22;70344;44.736;37.800;2023-07-13T04:01:53;24.00;77.09
78898;DHT22;70344;44.736;37.800;2023-07-13T04:03:00;24.03;77.21
78898;DHT22;70344;44.736;37.800;2023-07-13T04:04:06;24.01;77.44
78898;DHT22;70344;44.736;37.800;2023-07-13T04:05:08;24.01;77.68
78898;DHT22;70344;44.736;37.800;2023-07-13T04:06:25;24.01;77.41
78898;DHT22;70344;44.736;37.800;2023-07-13T04:07:27;24.03;77.33
78898;DHT22;70344;44.736;37.800;2023-07-13T04:08:34;24.04;77.39
78898;DHT22;70344;44.736;37.800;2023-07-13T04:09:36;24.04;77.69
78898;DHT22;70344;44.736;37.800;2023-07-13T04:10:42;24.04;77.46
78898;DHT22;70344;44.736;37.800;2023-07-13T04:11:47;24.07;77.43
78898;DHT22;70344;44.736;37.800;2023-07-13T04:12:49;24.08;77.36
78898;DHT22;70344;44.736;37.800;2023-07-13T04:13:53;24.10;77.31
78898;DHT22;70344;44.736;37.800;2023-07-13T04:14:57;24.10;77.11
78898;DHT22;70344;44.736;37.800;2023-07-13T04:15:59;24.11;76.76
78898;DHT22;70344;44.736;37.800;2023-07-13T04:17:04;24.11;76.53
78898;DHT22;70344;44.736;37.800;2023-07-13T04:18:06;24.17;76.08
78898;DHT22;70344;44.736;37.800;2023-07-13T04:19:13;24.18;76.08
78898;DHT22;70344;44.736;37.800;2023-07-13T04:20:18;24.22;76.12
78898;DHT22;70344;44.736;37.800;2023-07-13T04:21:25;24.25;75.63
78898;DHT22;70344;44.736;37.800;2023-07-13T04:22:27;24.25;75.39
78898;DHT22;70344;44.736;37.800;2023-07-13T04:23:30;24.26;75.16
78898;DHT22;70344;44.736;37.800;2023-07-13T04:24:31;24.28;74.16
78898;DHT22;70344;44.736;37.800;2023-07-13T04:25:33;24.31;74.65
78898;DHT22;70344;44.736;37.800;2023-07-13T04:26:39;24.32;74.72
78898;DHT22;70344;44.736;37.800;2023-07-13T04:27:46;24.36;74.99
78898;DHT22;70344;44.736;37.800;2023-07-13T04:28:50;24.38;75.00
78898;DHT22;70344;44.736;37.800;2023-07-13T04:29:53;24.42;74.20
78898;DHT22;70344;44.736;37.800;2023-07-13T04:30:55;24.40;74.49
78898;DHT22;70344;44.736;37.800;2023-07-13T04:31:57;24.49;74.07
78898;DHT22;70344;44.736;37.800;2023-07-13T04:33:01;24.60;74.60
78898;DHT22;70344;44.736;37.800;2023-07-13T04:34:02;24.64;75.05
78898;DHT22;70344;44.736;37.800;2023-07-13T04:35:05;24.73;75.43
78898;DHT22;70344;44.736;37.800;2023-07-13T04:36:09;24.79;75.93
78898;DHT22;70344;44.736;37.800;2023-07-13T04:37:12;24.81;76.00
78898;DHT22;70344;44.736;37.800;2023-07-13T04:38:14;24.87;76.22
78898;DHT22;70344;44.736;37.800;2023-07-13T04:39:17;24.94;76.21
78898;DHT22;70344;44.736;37.800;2023-07-13T04:40:19;24.97;75.24
78898;DHT22;70344;44.736;37.800;2023-07-13T04:41:22;24.97;73.63
78898;DHT22;70344;44.736;37.800;2023-07-13T04:42:24;24.98;73.41
78898;DHT22;70344;44.736;37.800;2023-07-13T04:43:27;25.01;73.44
78898;DHT22;70344;44.736;37.800;2023-07-13T04:44:29;25.07;73.22
78898;DHT22;70344;44.736;37.800;2023-07-13T04:45:31;25.10;73.41
78898;DHT22;70344;44.736;37.800;2023-07-13T04:46:33;25.15;73.53
78898;DHT22;70344;44.736;37.800;2023-07-13T04:47:36;25.22;73.80
78898;DHT22;70344;44.736;37.800;2023-07-13T04:48:38;25.26;73.20
78898;DHT22;70344;44.736;37.800;2023-07-13T04:49:42;25.29;72.69
78898;DHT22;70344;44.736;37.800;2023-07-13T04:50:43;25.32;72.63
78898;DHT22;70344;44.736;37.800;2023-07-13T04:51:48;25.36;72.60
78898;DHT22;70344;44.736;37.800;2023-07-13T04:52:55;25.43;72.63
78898;DHT22;70344;44.736;37.800;2023-07-13T04:53:59;25.46;71.37
78898;DHT22;70344;44.736;37.800;2023-07-13T04:55:04;25.50;71.23
78898;DHT22;70344;44.736;37.800;2023-07-13T04:56:06;25.63;70.36
78898;DHT22;70344;44.736;37.800;2023-07-13T04:57:14;25.73;70.25
78898;DHT22;70344;44.736;37.800;2023-07-13T04:58:19;25.84;70.52
78898;DHT22;70344;44.736;37.800;2023-07-13T04:59:25;25.94;70.37
78898;DHT22;70344;44.736;37.800;2023-07-13T05:00:30;25.97;70.39
78898;DHT22;70344;44.736;37.800;2023-07-13T05:01:35;25.98;70.08
78898;DHT22;70344;44.736;37.800;2023-07-13T05:02:38;26.05;70.72
78898;DHT22;70344;44.736;37.800;2023-07-13T05:03:43;26.04;69.95
78898;DHT22;70344;44.736;37.800;2023-07-13T05:04:49;26.02;69.55
78898;DHT22;70344;44.736;37.800;2023-07-13T05:06:02;26.00;69.16
78898;DHT22;70344;44.736;37.800;2023-07-13T05:07:06;25.97;69.45
78898;DHT22;70344;44.736;37.800;2023-07-13T05:08:08;25.98;69.97
78898;DHT22;70344;44.736;37.800;2023-07-13T05:09:10;25.98;69.98
78898;DHT22;70344;44.736;37.800;2023-07-13T05:10:12;25.98;69.86
78898;DHT22;70344;44.736;37.800;2023-07-13T05:11:14;26.01;68.80
78898;DHT22;70344;44.736;37.800;2023-07-13T05:12:19;26.02;69.28
78898;DHT22;70344;44.736;37.800;2023-07-13T05:13:21;26.09;69.64
78898;DHT22;70344;44.736;37.800;2023-07-13T05:14:27;26.14;69.30
78898;DHT22;70344;44.736;37.800;2023-07-13T05:15:28;26.12;69.71
78898;DHT22;70344;44.736;37.800;2023-07-13T05:16:30;26.18;69.99
78898;DHT22;70344;44.736;37.800;2023-07-13T05:17:36;26.14;69.36
78898;DHT22;70344;44.736;37.800;2023-07-13T05:18:43;26.12;68.67
78898;DHT22;70344;44.736;37.800;2023-07-13T05:19:45;26.09;69.51
78898;DHT22;70344;44.736;37.800;2023-07-13T05:20:47;26.09;69.88
78898;DHT22;70344;44.736;37.800;2023-07-13T05:21:49;26.05;71.44
78898;DHT22;70344;44.736;37.800;2023-07-13T05:22:51;26.04;72.26
78898;DHT22;70344;44.736;37.800;2023-07-13T05:23:56;26.02;72.83
78898;DHT22;70344;44.736;37.800;2023-07-13T05:24:58;26.06;72.88
78898;DHT22;70344;44.736;37.800;2023-07-13T05:26:04;26.08;72.99
78898;DHT22;70344;44.736;37.800;2023-07-13T05:27:06;26.12;73.25
78898;DHT22;70344;44.736;37.800;2023-07-13T05:28:08;26.26;72.78
78898;DHT22;70344;44.736;37.800;2023-07-13T05:29:13;26.36;73.09
78898;DHT22;70344;44.736;37.800;2023-07-13T05:30:15;26.50;72.97
78898;DHT22;70344;44.736;37.800;2023-07-13T05:31:21;26.64;72.54
78898;DHT22;70344;44.736;37.800;2023-07-13T05:32:23;26.78;72.53
78898;DHT22;70344;44.736;37.800;2023-07-13T05:33:27;26.78;71.69
78898;DHT22;70344;44.736;37.800;2023-07-13T05:34:29;26.81;71.98
78898;DHT22;70344;44.736;37.800;2023-07-13T05:35:34;26.91;71.25
78898;DHT22;70344;44.736;37.800;2023-07-13T05:36:38;26.95;70.24
78898;DHT22;70344;44.736;37.800;2023-07-13T05:37:43;27.02;68.97
78898;DHT22;70344;44.736;37.800;2023-07-13T05:38:47;27.09;69.74
78898;DHT22;70344;44.736;37.800;2023-07-13T05:39:50;27.18;69.21
78898;DHT22;70344;44.736;37.800;2023-07-13T05:40:58;27.25;69.45
78898;DHT22;70344;44.736;37.800;2023-07-13T05:42:02;27.39;69.65
78898;DHT22;70344;44.736;37.800;2023-07-13T05:43:04;27.47;68.67
78898;DHT22;70344;44.736;37.800;2023-07-13T05:44:07;27.50;67.75
78898;DHT22;70344;44.736;37.800;2023-07-13T05:45:11;27.53;65.81
78898;DHT22;70344;44.736;37.800;2023-07-13T05:46:17;27.58;66.57
78898;DHT22;70344;44.736;37.800;2023-07-13T05:47:21;27.67;66.60
78898;DHT22;70344;44.736;37.800;2023-07-13T05:48:23;27.73;66.33
78898;DHT22;70344;44.736;37.800;2023-07-13T05:49:27;27.70;66.79
78898;DHT22;70344;44.736;37.800;2023-07-13T05:50:31;27.68;67.59
78898;DHT22;70344;44.736;37.800;2023-07-13T05:51:33;27.64;68.29
78898;DHT22;70344;44.736;37.800;2023-07-13T05:52:35;27.73;68.76
78898;DHT22;70344;44.736;37.800;2023-07-13T05:53:39;27.76;68.80
78898;DHT22;70344;44.736;37.800;2023-07-13T05:54:41;27.94;68.45
78898;DHT22;70344;44.736;37.800;2023-07-13T05:55:46;28.05;68.99
78898;DHT22;70344;44.736;37.800;2023-07-13T05:56:55;28.25;68.66
78898;DHT22;70344;44.736;37.800;2023-07-13T05:58:03;28.37;68.59
78898;DHT22;70344;44.736;37.800;2023-07-13T05:59:07;28.51;68.94
78898;DHT22;70344;44.736;37.800;2023-07-13T06:00:09;28.68;67.74
78898;DHT22;70344;44.736;37.800;2023-07-13T06:01:16;28.75;67.13
78898;DHT22;70344;44.736;37.800;2023-07-13T06:02:24;28.74;65.98
78898;DHT22;70344;44.736;37.800;2023-07-13T06:03:29;28.69;65.52
78898;DHT22;70344;44.736;37.800;2023-07-13T06:04:31;28.71;65.71
78898;DHT22;70344;44.736;37.800;2023-07-13T06:05:35;28.64;65.20
78898;DHT22;70344;44.736;37.800;2023-07-13T06:06:38;28.68;65.85
78898;DHT22;70344;44.736;37.800;2023-07-13T06:07:41;28.75;65.07
78898;DHT22;70344;44.736;37.800;2023-07-13T06:08:49;28.79;64.91
78898;DHT22;70344;44.736;37.800;2023-07-13T06:09:51;28.85;65.63
78898;DHT22;70344;44.736;37.800;2023-07-13T06:11:04;28.98;66.12
78898;DHT22;70344;44.736;37.800;2023-07-13T06:12:07;29.01;64.53
78898;DHT22;70344;44.736;37.800;2023-07-13T06:13:12;29.01;65.64
78898;DHT22;70344;44.736;37.800;2023-07-13T06:14:16;29.06;64.41
78898;DHT22;70344;44.736;37.800;2023-07-13T06:15:18;29.01;64.05
78898;DHT22;70344;44.736;37.800;2023-07-13T06:16:20;29.12;64.46
78898;DHT22;70344;44.736;37.800;2023-07-13T06:17:22;29.18;65.22
78898;DHT22;70344;44.736;37.800;2023-07-13T06:18:24;29.29;65.45
78898;DHT22;70344;44.736;37.800;2023-07-13T06:19:27;29.40;64.29
78898;DHT22;70344;44.736;37.800;2023-07-13T06:20:30;29.37;64.35
78898;DHT22;70344;44.736;37.800;2023-07-13T06:21:36;29.49;65.96
78898;DHT22;70344;44.736;37.800;2023-07-13T06:22:39;29.55;62.44
78898;DHT22;70344;44.736;37.800;2023-07-13T06:23:41;29.51;60.96
78898;DHT22;70344;44.736;37.800;2023-07-13T06:24:46;29.42;60.33
78898;DHT22;70344;44.736;37.800;2023-07-13T06:25:51;29.40;61.45
78898;DHT22;70344;44.736;37.800;2023-07-13T06:26:55;29.37;61.10
78898;DHT22;70344;44.736;37.800;2023-07-13T06:27:58;29.31;60.92
78898;DHT22;70344;44.736;37.800;2023-07-13T06:29:03;29.23;60.47
78898;DHT22;70344;44.736;37.800;2023-07-13T06:30:05;29.19;60.85
78898;DHT22;70344;44.736;37.800;2023-07-13T06:31:11;28.98;61.70
78898;DHT22;70344;44.736;37.800;2023-07-13T06:32:17;28.92;63.14
78898;DHT22;70344;44.736;37.800;2023-07-13T06:33:22;29.02;63.99
78898;DHT22;70344;44.736;37.800;2023-07-13T06:34:24;29.16;64.64
78898;DHT22;70344;44.736;37.800;2023-07-13T06:35:27;29.30;64.20
78898;DHT22;70344;44.736;37.800;2023-07-13T06:36:32;29.30;63.67
78898;DHT22;70344;44.736;37.800;2023-07-13T06:37:34;29.36;62.25
78898;DHT22;70344;44.736;37.800;2023-07-13T06:38:39;29.38;62.24
78898;DHT22;70344;44.736;37.800;2023-07-13T06:39:46;29.46;61.40